Current | Forecast
Updated: 5:00 PM JST on November 18, 2017
Observed at Miyakojima, Japan
Temperature 70°F
Humidity 94%
Dew Point 68°F
Wind NNE at 17 mph
Wind Gust 29 mph
Pressure 29.89 in (Rising)
Conditions Light Rain Showers
Visibility 4.3 miles
UV 0 out of 16
Clouds (FEW) : 1000 ft
Mostly Cloudy (BKN) : 1500 ft
Yesterday's Maximum 81°F
Yesterday's Minimum 72°F approx.
Yesterday's Cooling Degree Days 11 approx.
Sunrise6:57 AM JST
Sunset5:50 PM JST
Moon Rise6:27 AM JST
Moon Set5:56 PM JST
Moon PhaseMoon Phase
Waning Crescent
Raw METARMETAR ROMY 180800Z 02015G25KT 7000 -SHRA FEW010 BKN015 21/20 Q1012


Monday
. High: 80° F.
Tuesday
. High: 78° F.
Wednesday
. High: 78° F.
Thursday
. High: 78° F.
Friday
. High: 82° F.
Saturday
. High: 80° F.
Sunday
. High: 82° F.
Monday
. High: 80° F.

Units: English | Metric

Find the Weather for any City, State or Zipcode, or Country:

U.S. State List | Severe Weather | Tropical Storms | Ski Conditions
United States | Canada | Central America | South America | Asia | Europe | Australia | Africa | Islands

Weather Underground

© Copyright 2017
The Weather Company, LLC